createdAt,value
2022-11-28T00:01:39.662Z,23.10
2022-11-28T00:04:10.250Z,21.95
2022-11-28T00:06:40.625Z,21.08
2022-11-28T00:09:09.590Z,21.45
2022-11-28T00:11:37.925Z,22.05
2022-11-28T00:14:06.416Z,21.95
2022-11-28T00:16:34.820Z,17.83
2022-11-28T00:19:04.875Z,18.65
2022-11-28T00:21:35.074Z,19.67
2022-11-28T00:24:03.932Z,19.65
2022-11-28T00:26:34.317Z,21.05
2022-11-28T00:29:02.955Z,19.33
2022-11-28T00:31:34.093Z,19.70
2022-11-28T00:34:03.058Z,20.15
2022-11-28T00:36:31.934Z,17.25
2022-11-28T00:39:01.615Z,17.83
2022-11-28T00:41:31.530Z,18.33
2022-11-28T00:43:59.899Z,18.35
2022-11-28T00:46:29.172Z,19.02
2022-11-28T00:48:58.306Z,16.80
2022-11-28T00:51:28.415Z,15.77
2022-11-28T00:53:58.678Z,18.05
2022-11-28T00:56:30.054Z,18.02
2022-11-28T00:58:59.995Z,16.85
2022-11-28T01:01:31.179Z,14.70
2022-11-28T01:04:02.625Z,15.73
2022-11-28T01:06:32.857Z,15.57
2022-11-28T01:09:03.457Z,14.70
2022-11-28T01:11:33.482Z,14.43
2022-11-28T01:14:02.881Z,15.95
2022-11-28T01:16:31.900Z,14.82
2022-11-28T01:19:00.449Z,12.95
2022-11-28T01:21:29.289Z,16.08
2022-11-28T01:23:57.751Z,14.90
2022-11-28T01:26:27.737Z,13.90
2022-11-28T01:28:58.138Z,12.10
2022-11-28T01:31:29.160Z,13.25
2022-11-28T01:33:58.002Z,14.20
2022-11-28T01:36:27.060Z,13.05
2022-11-28T01:38:55.599Z,12.40
2022-11-28T01:41:26.921Z,13.57
2022-11-28T01:44:09.476Z,14.23
2022-11-28T01:46:38.285Z,12.68
2022-11-28T01:49:12.638Z,15.50
2022-11-28T01:51:46.175Z,15.07
2022-11-28T01:54:15.972Z,13.63
2022-11-28T01:56:51.340Z,13.13
2022-11-28T01:59:24.157Z,13.50
2022-11-28T02:01:52.390Z,13.60
2022-11-28T02:04:21.047Z,13.95
2022-11-28T02:06:49.307Z,13.15
2022-11-28T02:09:18.238Z,14.32
2022-11-28T02:12:09.250Z,13.52
2022-11-28T02:15:09.462Z,13.30
2022-11-28T02:17:48.307Z,13.38
2022-11-28T02:20:58.063Z,14.57
2022-11-28T02:23:33.462Z,14.30
2022-11-28T02:26:26.246Z,14.32
2022-11-28T02:29:42.789Z,15.38
2022-11-28T02:32:19.201Z,13.40
2022-11-28T02:34:56.003Z,14.73
2022-11-28T02:37:30.425Z,14.02
2022-11-28T02:40:10.221Z,15.43
2022-11-28T02:42:51.533Z,14.45
2022-11-28T02:45:25.475Z,15.10
2022-11-28T02:48:03.667Z,15.02
2022-11-28T02:50:36.564Z,14.30
2022-11-28T02:53:08.609Z,12.48
2022-11-28T02:55:41.308Z,13.45
2022-11-28T02:58:10.518Z,14.77
2022-11-28T03:00:40.359Z,12.90
2022-11-28T03:03:27.658Z,15.30
2022-11-28T03:06:00.340Z,12.95
2022-11-28T03:08:49.190Z,12.52
2022-11-28T03:11:24.320Z,14.52
2022-11-28T03:13:58.142Z,13.63
2022-11-28T03:16:30.896Z,13.65
2022-11-28T03:19:08.730Z,13.48
2022-11-28T03:21:42.129Z,14.32
2022-11-28T03:24:16.755Z,14.13
2022-11-28T03:26:54.026Z,12.35
2022-11-28T03:29:26.708Z,12.63
2022-11-28T03:31:58.611Z,13.70
2022-11-28T03:34:33.330Z,11.43
2022-11-28T03:37:07.329Z,12.32
2022-11-28T03:39:39.436Z,12.57
2022-11-28T03:42:11.926Z,12.45
2022-11-28T03:44:46.915Z,11.95
2022-11-28T03:47:15.503Z,12.43
2022-11-28T03:49:51.560Z,11.55
2022-11-28T03:52:25.558Z,13.02
2022-11-28T03:54:58.368Z,12.20
2022-11-28T03:57:34.369Z,12.57
2022-11-28T04:00:07.516Z,13.00
2022-11-28T04:02:42.150Z,12.02
2022-11-28T04:05:22.365Z,12.50
2022-11-28T04:07:57.598Z,11.75
2022-11-28T04:10:33.373Z,12.18
2022-11-28T04:13:06.930Z,11.30
2022-11-28T04:15:42.724Z,12.70
2022-11-28T04:18:21.868Z,11.38
2022-11-28T04:20:58.506Z,12.40
2022-11-28T04:23:28.846Z,11.40
2022-11-28T04:26:02.022Z,11.60
2022-11-28T04:28:34.122Z,11.25
2022-11-28T04:31:05.792Z,13.32
2022-11-28T04:33:37.638Z,12.57
2022-11-28T04:36:09.670Z,10.85
2022-11-28T04:38:39.518Z,12.25
2022-11-28T04:41:16.106Z,11.23
2022-11-28T04:43:50.088Z,12.20
2022-11-28T04:46:25.164Z,12.30
2022-11-28T04:48:53.529Z,10.70
2022-11-28T04:51:28.356Z,10.95
2022-11-28T04:54:03.108Z,11.23
2022-11-28T04:56:41.427Z,11.43
2022-11-28T04:59:10.287Z,12.23
2022-11-28T05:01:41.334Z,11.75
2022-11-28T05:04:09.697Z,11.35
2022-11-28T05:06:39.514Z,11.45
2022-11-28T05:09:08.216Z,12.18
2022-11-28T05:11:36.504Z,12.15
2022-11-28T05:14:04.891Z,9.68
2022-11-28T05:16:33.296Z,11.65
2022-11-28T05:19:01.492Z,10.10
2022-11-28T05:21:29.887Z,11.48
2022-11-28T05:23:59.553Z,10.57
2022-11-28T05:26:27.784Z,10.30
2022-11-28T05:28:57.209Z,10.15
2022-11-28T05:31:25.705Z,9.50
2022-11-28T05:33:55.164Z,9.10
2022-11-28T05:36:23.663Z,9.32
2022-11-28T05:38:51.967Z,11.23
2022-11-28T05:41:23.999Z,9.82
2022-11-28T05:43:52.815Z,9.30
2022-11-28T05:46:21.643Z,9.52
2022-11-28T05:48:49.871Z,8.95
2022-11-28T05:51:18.644Z,9.95
2022-11-28T05:53:46.815Z,8.48
2022-11-28T05:56:16.702Z,9.38
2022-11-28T05:58:46.898Z,8.05
2022-11-28T06:01:17.309Z,10.75
2022-11-28T06:03:46.195Z,10.18
2022-11-28T06:06:15.923Z,10.38
2022-11-28T06:08:44.855Z,10.60
2022-11-28T06:11:14.901Z,9.15
2022-11-28T06:13:43.198Z,9.90
2022-11-28T06:16:14.881Z,9.82
2022-11-28T06:18:43.634Z,11.73
2022-11-28T06:21:14.175Z,9.82
2022-11-28T06:23:42.867Z,9.93
2022-11-28T06:26:12.995Z,11.27
2022-11-28T06:28:41.696Z,9.77
2022-11-28T06:31:13.433Z,10.77
2022-11-28T06:33:42.333Z,9.18
2022-11-28T06:36:12.111Z,11.77
2022-11-28T06:38:40.508Z,11.50
2022-11-28T06:41:11.707Z,10.23
2022-11-28T06:43:40.423Z,11.30
2022-11-28T06:46:16.172Z,12.07
2022-11-28T06:48:45.074Z,11.02
2022-11-28T06:51:13.809Z,10.45
2022-11-28T06:53:42.494Z,11.23
2022-11-28T06:56:14.093Z,12.27
2022-11-28T06:58:43.203Z,11.75
2022-11-28T07:01:15.304Z,11.25
2022-11-28T07:03:44.075Z,10.88
2022-11-28T07:06:12.935Z,10.23
2022-11-28T07:08:41.638Z,10.43
2022-11-28T07:11:11.966Z,10.60
2022-11-28T07:13:40.639Z,11.35
2022-11-28T07:16:10.002Z,12.45
2022-11-28T07:18:39.879Z,10.48
2022-11-28T07:21:08.077Z,9.50
2022-11-28T07:23:36.278Z,11.02
2022-11-28T07:26:05.878Z,9.73
2022-11-28T07:28:35.999Z,13.20
2022-11-28T07:31:06.719Z,11.60
2022-11-28T07:33:36.440Z,11.05
2022-11-28T07:36:08.370Z,11.63
2022-11-28T07:38:36.734Z,10.52
2022-11-28T07:41:05.972Z,11.50
2022-11-28T07:43:34.229Z,9.80
2022-11-28T07:46:05.846Z,11.43
2022-11-28T07:48:34.388Z,11.45
2022-11-28T07:51:07.844Z,11.73
2022-11-28T07:53:36.206Z,11.32
2022-11-28T07:56:05.084Z,10.05
2022-11-28T07:58:33.605Z,12.43
2022-11-28T08:01:01.832Z,11.65
2022-11-28T08:03:30.139Z,12.02
2022-11-28T08:06:03.281Z,11.70
2022-11-28T08:08:34.585Z,12.20
2022-11-28T08:11:04.563Z,11.65
2022-11-28T08:13:32.971Z,12.35
2022-11-28T08:16:05.235Z,9.70
2022-11-28T08:18:33.688Z,9.40
2022-11-28T08:21:06.755Z,11.02
2022-11-28T08:23:37.534Z,11.55
2022-11-28T08:26:07.225Z,11.57
2022-11-28T08:28:35.703Z,10.77
2022-11-28T08:31:11.094Z,10.48
2022-11-28T08:33:39.889Z,11.75
2022-11-28T08:36:09.596Z,11.57
2022-11-28T08:38:39.396Z,10.93
2022-11-28T08:41:09.605Z,11.20
2022-11-28T08:43:39.350Z,10.43
2022-11-28T08:46:10.300Z,8.90
2022-11-28T08:48:38.942Z,10.77
2022-11-28T08:51:09.522Z,9.45
2022-11-28T08:53:39.175Z,10.27
2022-11-28T08:56:08.262Z,10.13
2022-11-28T08:58:36.546Z,9.15
2022-11-28T09:01:05.613Z,8.63
2022-11-28T09:03:34.011Z,8.25
2022-11-28T09:06:03.339Z,8.07
2022-11-28T09:08:31.625Z,10.02
2022-11-28T09:11:01.431Z,8.77
2022-11-28T09:13:29.694Z,9.48
2022-11-28T09:15:57.844Z,8.95
2022-11-28T09:18:27.126Z,9.05
2022-11-28T09:20:59.628Z,8.07
2022-11-28T09:23:28.024Z,7.50
2022-11-28T09:25:56.346Z,8.10
2022-11-28T09:28:28.811Z,8.77
2022-11-28T09:31:02.713Z,8.20
2022-11-28T09:33:31.395Z,8.80
2022-11-28T09:35:59.674Z,8.27
2022-11-28T09:38:28.081Z,8.57
2022-11-28T09:40:56.384Z,8.63
2022-11-28T09:43:32.219Z,8.23
2022-11-28T09:46:03.974Z,9.10
2022-11-28T09:48:37.914Z,8.43
2022-11-28T09:51:15.335Z,8.02
2022-11-28T09:53:51.735Z,7.78
2022-11-28T09:56:23.405Z,7.93
2022-11-28T09:58:57.883Z,7.18
2022-11-28T10:01:33.359Z,8.00
2022-11-28T10:04:07.540Z,8.68
2022-11-28T10:06:50.182Z,7.95
2022-11-28T10:09:29.330Z,8.25
2022-11-28T10:12:10.804Z,7.45
2022-11-28T10:15:02.597Z,7.55
2022-11-28T10:17:40.828Z,8.88
2022-11-28T10:20:15.335Z,8.07
2022-11-28T10:22:49.591Z,7.05
2022-11-28T10:25:22.442Z,8.57
2022-11-28T10:27:52.108Z,7.57
2022-11-28T10:30:24.334Z,6.35
2022-11-28T10:33:05.111Z,7.53
2022-11-28T10:35:42.805Z,6.63
2022-11-28T10:38:15.220Z,6.53
2022-11-28T10:40:49.014Z,6.07
2022-11-28T10:43:29.243Z,7.18
2022-11-28T10:46:13.683Z,7.55
2022-11-28T10:48:46.381Z,6.30
2022-11-28T10:51:26.426Z,7.03
2022-11-28T10:54:05.772Z,6.72
2022-11-28T10:56:48.563Z,7.93
2022-11-28T10:59:28.875Z,6.38
2022-11-28T11:01:59.278Z,6.45
2022-11-28T11:04:28.843Z,7.65
2022-11-28T11:07:10.225Z,7.30
2022-11-28T11:09:41.574Z,5.97
2022-11-28T11:12:17.498Z,7.65
2022-11-28T11:14:45.779Z,7.10
2022-11-28T11:17:31.271Z,7.55
2022-11-28T11:20:02.814Z,8.02
2022-11-28T11:22:32.071Z,8.45
2022-11-28T11:25:14.491Z,7.53
2022-11-28T11:27:50.997Z,7.05
2022-11-28T11:30:27.103Z,7.80
2022-11-28T11:32:58.891Z,8.60
2022-11-28T11:35:29.183Z,7.05
2022-11-28T11:38:17.509Z,9.95
2022-11-28T11:40:46.432Z,8.90
2022-11-28T11:43:29.074Z,8.45
2022-11-28T11:46:08.824Z,8.52
2022-11-28T11:48:40.357Z,8.07
2022-11-28T11:51:21.762Z,9.32
2022-11-28T11:53:50.062Z,8.30
2022-11-28T11:56:19.038Z,8.15
2022-11-28T11:58:53.351Z,9.15
2022-11-28T12:01:23.110Z,7.82
2022-11-28T12:03:58.159Z,9.38
2022-11-28T12:06:31.379Z,9.07
2022-11-28T12:09:08.781Z,9.80
2022-11-28T12:11:43.961Z,10.00
2022-11-28T12:14:28.010Z,9.50
2022-11-28T12:17:32.599Z,10.27
2022-11-28T12:20:14.099Z,10.07
2022-11-28T12:22:50.688Z,9.52
2022-11-28T12:25:26.906Z,9.38
2022-11-28T12:28:07.021Z,9.63
2022-11-28T12:30:51.441Z,10.73
2022-11-28T12:33:30.647Z,10.18
2022-11-28T12:36:11.327Z,9.30
2022-11-28T12:38:56.583Z,10.25
2022-11-28T12:41:39.112Z,10.15
2022-11-28T12:44:20.925Z,10.50
2022-11-28T12:46:55.416Z,9.85
2022-11-28T12:49:35.541Z,10.30
2022-11-28T12:52:21.200Z,10.18
2022-11-28T12:55:19.498Z,11.20
2022-11-28T12:57:54.298Z,10.25
2022-11-28T13:00:25.582Z,10.18
2022-11-28T13:03:13.120Z,12.00
2022-11-28T13:05:55.617Z,10.18
2022-11-28T13:08:48.924Z,10.02
2022-11-28T13:11:30.254Z,9.60
2022-11-28T13:14:05.514Z,8.88
2022-11-28T13:16:42.427Z,10.00
2022-11-28T13:19:16.859Z,11.70
2022-11-28T13:21:50.806Z,11.85
2022-11-28T13:24:31.413Z,10.20
2022-11-28T13:27:06.923Z,10.15
2022-11-28T13:29:43.627Z,10.75
2022-11-28T13:32:19.279Z,10.38
2022-11-28T13:34:48.800Z,10.55
2022-11-28T13:40:20.363Z,10.63
2022-11-28T13:43:09.830Z,8.82
2022-11-28T13:45:40.057Z,10.60
2022-11-28T13:51:39.064Z,11.10
2022-11-28T13:54:43.559Z,10.48
2022-11-28T13:57:23.936Z,10.35
2022-11-28T13:59:57.477Z,10.00
2022-11-28T14:02:45.147Z,9.77
2022-11-28T14:05:41.617Z,10.65
2022-11-28T14:08:24.254Z,9.82
2022-11-28T14:11:05.639Z,9.88
2022-11-28T14:13:55.387Z,12.32
2022-11-28T14:16:38.400Z,12.27
2022-11-28T14:19:23.851Z,9.65
2022-11-28T14:22:06.089Z,11.25
2022-11-28T14:24:52.970Z,9.82
2022-11-28T14:27:25.741Z,9.43
2022-11-28T14:29:58.013Z,11.27
2022-11-28T14:32:34.021Z,10.45
2022-11-28T14:35:03.063Z,11.32
2022-11-28T14:37:58.981Z,11.23
2022-11-28T14:41:06.887Z,11.38
2022-11-28T14:43:37.489Z,9.95
2022-11-28T14:46:34.885Z,12.18
2022-11-28T14:49:24.759Z,11.20
2022-11-28T14:52:41.987Z,11.23
2022-11-28T14:55:20.723Z,10.40
2022-11-28T14:58:00.911Z,12.70
2022-11-28T15:00:31.704Z,10.77
2022-11-28T15:03:24.211Z,10.15
2022-11-28T15:05:53.789Z,11.48
2022-11-28T15:08:36.188Z,11.27
2022-11-28T15:11:21.138Z,12.45
2022-11-28T15:14:15.981Z,11.02
2022-11-28T15:16:50.458Z,10.55
2022-11-28T15:19:26.099Z,12.00
2022-11-28T15:21:55.797Z,12.38
2022-11-28T15:24:26.348Z,10.70
2022-11-28T15:26:57.994Z,12.13
2022-11-28T15:29:28.571Z,11.35
2022-11-28T15:31:58.943Z,12.52
2022-11-28T15:34:31.666Z,12.55
2022-11-28T15:37:02.472Z,12.82
2022-11-28T15:39:36.117Z,10.52
2022-11-28T15:42:06.813Z,12.88
2022-11-28T15:44:36.671Z,11.32
2022-11-28T15:47:06.111Z,11.27
2022-11-28T15:49:38.626Z,12.48
2022-11-28T15:52:06.903Z,12.38
2022-11-28T15:54:39.231Z,11.75
2022-11-28T15:57:18.102Z,12.38
2022-11-28T15:59:46.856Z,12.02
2022-11-28T16:02:22.791Z,13.60
2022-11-28T16:04:59.137Z,12.93
2022-11-28T16:07:27.632Z,15.05
2022-11-28T16:10:00.943Z,13.25
2022-11-28T16:12:30.048Z,13.48
2022-11-28T16:15:01.971Z,13.50
2022-11-28T16:17:33.697Z,13.77
2022-11-28T16:20:05.413Z,13.55
2022-11-28T16:22:37.666Z,13.30
2022-11-28T16:25:15.555Z,14.35
2022-11-28T16:27:45.633Z,14.55
2022-11-28T16:30:36.961Z,13.40
2022-11-28T16:33:35.437Z,14.15
2022-11-28T16:36:13.498Z,15.27
2022-11-28T16:38:41.868Z,14.38
2022-11-28T16:41:18.928Z,14.23
2022-11-28T16:43:51.215Z,14.90
2022-11-28T16:46:22.886Z,13.52
2022-11-28T16:48:55.278Z,14.20
2022-11-28T16:51:36.605Z,14.57
2022-11-28T16:54:30.746Z,14.85
2022-11-28T16:57:10.478Z,15.63
2022-11-28T16:59:39.114Z,14.27
2022-11-28T17:02:15.929Z,14.80
2022-11-28T17:04:44.827Z,15.23
2022-11-28T17:07:17.674Z,12.23
2022-11-28T17:09:47.459Z,14.27
2022-11-28T17:12:22.864Z,13.65
2022-11-28T17:14:51.144Z,14.25
2022-11-28T17:17:20.634Z,13.68
2022-11-28T17:19:49.013Z,13.57
2022-11-28T17:22:21.363Z,13.93
2022-11-28T17:24:51.626Z,14.60
2022-11-28T17:27:19.886Z,13.93
2022-11-28T17:29:48.125Z,12.63
2022-11-28T17:32:16.826Z,12.02
2022-11-28T17:34:46.325Z,13.52
2022-11-28T17:37:14.767Z,13.23
2022-11-28T17:40:04.649Z,13.40
2022-11-28T17:42:33.212Z,13.23
2022-11-28T17:45:01.530Z,15.13
2022-11-28T17:47:29.894Z,13.15
2022-11-28T17:49:58.912Z,14.57
2022-11-28T17:52:30.361Z,13.80
2022-11-28T17:55:06.987Z,15.00
2022-11-28T17:57:36.214Z,15.55
2022-11-28T18:00:06.682Z,13.68
2022-11-28T18:02:35.387Z,13.30
2022-11-28T18:05:03.818Z,13.52
2022-11-28T18:07:33.393Z,12.27
2022-11-28T18:10:03.675Z,13.00
2022-11-28T18:12:32.453Z,13.57
2022-11-28T18:15:01.121Z,14.05
2022-11-28T18:17:29.424Z,13.80
2022-11-28T18:19:58.129Z,12.50
2022-11-28T18:22:26.303Z,14.65
2022-11-28T18:24:54.555Z,12.48
2022-11-28T18:27:24.345Z,11.73
2022-11-28T18:29:52.771Z,13.15
2022-11-28T18:32:21.035Z,10.90
2022-11-28T18:34:50.141Z,11.52
2022-11-28T18:37:18.601Z,12.00
2022-11-28T18:39:47.192Z,11.85
2022-11-28T18:42:15.788Z,13.50
2022-11-28T18:44:45.474Z,13.18
2022-11-28T18:47:13.754Z,12.75
2022-11-28T18:49:42.324Z,12.55
2022-11-28T18:52:10.807Z,12.70
2022-11-28T18:54:39.066Z,13.68
2022-11-28T18:57:08.098Z,12.98
2022-11-28T18:59:37.303Z,13.82
2022-11-28T19:02:07.053Z,13.23
2022-11-28T19:04:36.425Z,12.13
2022-11-28T19:07:04.683Z,13.95
2022-11-28T19:09:33.053Z,13.00
2022-11-28T19:12:01.249Z,14.15
2022-11-28T19:14:29.790Z,12.88
2022-11-28T19:16:58.319Z,13.70
2022-11-28T19:19:28.133Z,12.93
2022-11-28T19:21:56.500Z,14.02
2022-11-28T19:24:25.113Z,13.70
2022-11-28T19:26:53.434Z,14.55
2022-11-28T19:29:21.647Z,14.98
2022-11-28T19:31:49.886Z,13.52
2022-11-28T19:34:19.681Z,14.00
2022-11-28T19:36:51.232Z,14.80
2022-11-28T19:39:22.308Z,14.07
2022-11-28T19:41:51.590Z,13.48
2022-11-28T19:44:21.062Z,14.15
2022-11-28T19:46:50.461Z,15.18
2022-11-28T19:49:20.603Z,14.18
2022-11-28T19:51:51.421Z,14.07
2022-11-28T19:54:20.808Z,15.65
2022-11-28T19:56:49.600Z,15.70
2022-11-28T19:59:18.304Z,14.05
2022-11-28T20:01:49.098Z,17.75
2022-11-28T20:04:17.698Z,16.83
2022-11-28T20:06:46.085Z,15.05
2022-11-28T20:09:15.777Z,16.08
2022-11-28T20:11:45.730Z,15.68
2022-11-28T20:14:16.424Z,17.20
2022-11-28T20:16:45.143Z,15.93
2022-11-28T20:19:15.074Z,17.58
2022-11-28T20:21:43.428Z,16.95
2022-11-28T20:24:12.074Z,16.10
2022-11-28T20:26:44.055Z,17.50
2022-11-28T20:29:15.338Z,17.27
2022-11-28T20:31:45.979Z,17.08
2022-11-28T20:34:15.140Z,18.77
2022-11-28T20:36:43.793Z,17.50
2022-11-28T20:39:12.821Z,18.83
2022-11-28T20:41:43.384Z,18.67
2022-11-28T20:44:12.152Z,19.20
2022-11-28T20:46:40.455Z,18.25
2022-11-28T20:49:08.971Z,18.85
2022-11-28T20:51:37.834Z,21.13
2022-11-28T20:54:07.566Z,18.35
2022-11-28T20:57:05.178Z,18.33
2022-11-28T20:59:29.312Z,17.38
2022-11-28T21:01:57.640Z,18.45
2022-11-28T21:04:26.023Z,19.80
2022-11-28T21:06:54.265Z,18.40
2022-11-28T21:09:22.896Z,17.52
2022-11-28T21:11:57.378Z,19.35
2022-11-28T21:14:28.446Z,18.90
2022-11-28T21:16:57.578Z,17.92
2022-11-28T21:19:25.968Z,18.90
2022-11-28T21:21:54.422Z,17.52
2022-11-28T21:24:22.799Z,16.63
2022-11-28T21:26:53.836Z,17.35
2022-11-28T21:29:23.136Z,17.52
2022-11-28T21:31:53.436Z,19.00
2022-11-28T21:34:22.535Z,17.27
2022-11-28T21:36:53.638Z,19.88
2022-11-28T21:39:23.010Z,18.90
2022-11-28T21:41:52.250Z,16.25
2022-11-28T21:44:20.689Z,15.98
2022-11-28T21:46:49.110Z,16.58
2022-11-28T21:49:19.071Z,16.60
2022-11-28T21:51:47.380Z,15.93
2022-11-28T21:54:15.654Z,16.35
2022-11-28T21:56:44.039Z,16.42
2022-11-28T21:59:12.222Z,16.27
2022-11-28T22:01:40.686Z,16.85
2022-11-28T22:04:09.038Z,17.63
2022-11-28T22:06:38.570Z,17.80
2022-11-28T22:09:09.660Z,16.83
2022-11-28T22:11:39.328Z,17.40
2022-11-28T22:14:07.836Z,19.50
2022-11-28T22:16:36.206Z,18.58
2022-11-28T22:19:04.480Z,15.50
2022-11-28T22:24:23.091Z,18.88
2022-11-28T22:26:51.685Z,17.38
2022-11-28T22:29:20.141Z,17.80
2022-11-28T22:31:48.681Z,18.38
2022-11-28T22:34:16.905Z,17.05
2022-11-28T22:36:45.280Z,16.52
2022-11-28T22:39:13.640Z,17.27
2022-11-28T22:41:43.640Z,14.80
2022-11-28T22:44:12.783Z,16.77
2022-11-28T22:46:41.011Z,17.15
2022-11-28T22:49:10.356Z,14.70
2022-11-28T22:51:39.154Z,15.40
2022-11-28T22:54:07.908Z,13.98
2022-11-28T22:56:36.558Z,15.63
2022-11-28T22:59:07.387Z,17.20
2022-11-28T23:01:35.775Z,14.25
2022-11-28T23:04:04.374Z,16.83
2022-11-28T23:06:34.763Z,16.70
2022-11-28T23:09:05.901Z,16.60
2022-11-28T23:11:37.762Z,15.00
2022-11-28T23:14:08.155Z,15.07
2022-11-28T23:16:38.733Z,16.00
2022-11-28T23:19:13.753Z,17.45
2022-11-28T23:21:44.907Z,15.85
2022-11-28T23:24:15.712Z,16.67
2022-11-28T23:26:44.451Z,16.13
2022-11-28T23:29:14.636Z,17.90
2022-11-28T23:31:44.570Z,16.20
2022-11-28T23:34:13.328Z,16.13
2022-11-28T23:36:43.366Z,18.15
2022-11-28T23:39:13.546Z,16.08
2022-11-28T23:41:42.118Z,15.68
2022-11-28T23:44:11.987Z,16.73
2022-11-28T23:46:42.436Z,15.43
2022-11-28T23:49:11.731Z,16.95
2022-11-28T23:51:41.131Z,15.52
2022-11-28T23:54:10.611Z,16.40
2022-11-28T23:56:41.630Z,17.25
2022-11-28T23:59:12.731Z,17.23
